Time;durP1;ratioP1;P1;durP2;ratioP2;P2;SDS_P1;SDS_P2;PMS_P1;PMS_P2;Temp;Humidity;BMP_temperature;BMP_pressure;BME280_temperature;BME280_humidity;BME280_pressure;Samples;Min_cycle;Max_cycle;Signal;HPM_P1;HPM_P2
2021/11/15 00:00:11;0.00;0.00;0.62;0.00;0.00;0.62;3.30;2.10;;;23.60;29.60;;;;;;2217158;62;20407;-59
2021/11/15 00:03:00;0.00;0.00;0.62;0.00;0.00;0.62;3.37;2.20;;;23.60;29.60;;;;;;2217842;62;20603;-60
2021/11/15 00:05:45;0.00;0.00;0.62;0.00;0.00;0.62;2.87;2.10;;;23.60;29.60;;;;;;2217521;62;20431;-59
2021/11/15 00:08:30;0.00;0.00;0.62;0.00;0.00;0.62;3.70;2.30;;;23.60;29.60;;;;;;2218122;62;20371;-60
2021/11/15 00:11:15;0.00;0.00;0.62;0.00;0.00;0.62;2.43;1.87;;;23.60;29.60;;;;;;2218783;62;20444;-60
2021/11/15 00:14:00;0.00;0.00;0.62;0.00;0.00;0.62;3.17;2.20;;;23.60;29.60;;;;;;2217835;62;20392;-60
2021/11/15 00:16:46;0.00;0.00;0.62;0.00;0.00;0.62;3.30;2.47;;;23.50;29.50;;;;;;2218043;62;20364;-59
2021/11/15 00:19:31;0.00;0.00;0.62;0.00;0.00;0.62;3.40;2.20;;;23.60;29.60;;;;;;2218723;62;20455;-60
2021/11/15 00:22:16;0.00;0.00;0.62;0.00;0.00;0.62;3.10;2.40;;;23.60;29.60;;;;;;2217995;62;20421;-60
2021/11/15 00:25:00;0.00;0.00;0.62;0.00;0.00;0.62;4.50;3.27;;;23.60;29.60;;;;;;2218286;62;20403;-60
2021/11/15 00:27:45;0.00;0.00;0.62;0.00;0.00;0.62;5.43;3.50;;;23.60;29.50;;;;;;2218297;62;20367;-60
2021/11/15 00:30:30;0.00;0.00;0.62;0.00;0.00;0.62;5.60;3.60;;;23.60;29.40;;;;;;2218125;62;20375;-60
2021/11/15 00:33:16;0.00;0.00;0.62;0.00;0.00;0.62;6.37;4.50;;;23.50;29.30;;;;;;2218488;62;20719;-60
2021/11/15 00:36:00;0.00;0.00;0.62;0.00;0.00;0.62;7.57;5.40;;;23.60;29.30;;;;;;2217952;62;20446;-59
2021/11/15 00:38:45;0.00;0.00;0.62;0.00;0.00;0.62;8.40;6.50;;;23.50;29.00;;;;;;2218174;62;20650;-59
2021/11/15 00:41:30;0.00;0.00;0.62;0.00;0.00;0.62;11.13;7.20;;;23.50;29.00;;;;;;2218597;62;20421;-59
2021/11/15 00:44:15;0.00;0.00;0.62;0.00;0.00;0.62;12.10;6.97;;;23.50;29.00;;;;;;2217679;62;20388;-59
2021/11/15 00:47:00;0.00;0.00;0.62;0.00;0.00;0.62;10.90;6.80;;;23.50;29.00;;;;;;2218448;62;20736;-59
2021/11/15 00:49:46;0.00;0.00;0.62;0.00;0.00;0.62;13.37;8.70;;;23.50;29.10;;;;;;2218317;62;20367;-60
2021/11/15 00:52:30;0.00;0.00;0.62;0.00;0.00;0.62;11.30;6.70;;;23.50;29.00;;;;;;2217935;62;20388;-60
2021/11/15 00:55:15;0.00;0.00;0.62;0.00;0.00;0.62;9.93;7.33;;;23.40;29.00;;;;;;2218582;62;20743;-60
2021/11/15 00:58:03;0.00;0.00;0.62;0.00;0.00;0.62;10.67;6.47;;;23.40;29.00;;;;;;2217853;62;20753;-60
2021/11/15 01:00:48;0.00;0.00;0.62;0.00;0.00;0.62;12.50;6.63;;;23.40;29.00;;;;;;2217809;62;20757;-60
2021/11/15 01:03:33;0.00;0.00;0.62;0.00;0.00;0.62;10.30;6.47;;;23.40;29.00;;;;;;2218408;62;20407;-60
2021/11/15 01:06:19;0.00;0.00;0.62;0.00;0.00;0.62;11.13;7.17;;;23.40;29.00;;;;;;2217702;62;20618;-60
2021/11/15 01:09:04;0.00;0.00;0.62;0.00;0.00;0.62;9.63;7.00;;;23.40;29.00;;;;;;2218420;62;20399;-60
2021/11/15 01:11:49;0.00;0.00;0.62;0.00;0.00;0.62;12.70;7.27;;;23.40;29.00;;;;;;2218246;62;20405;-60
2021/11/15 01:14:34;0.00;0.00;0.62;0.00;0.00;0.62;9.97;6.40;;;23.40;29.00;;;;;;2217921;62;20404;-60
2021/11/15 01:17:19;0.00;0.00;0.62;0.00;0.00;0.62;9.20;6.73;;;23.30;28.90;;;;;;2218427;62;20376;-60
2021/11/15 01:20:08;0.00;0.00;0.62;0.00;0.00;0.62;10.23;6.40;;;23.30;28.90;;;;;;2217656;62;20724;-60
2021/11/15 01:22:55;0.00;0.00;0.62;0.00;0.00;0.62;10.10;7.03;;;23.30;28.90;;;;;;2217930;62;20368;-60
2021/11/15 01:25:41;0.00;0.00;0.62;0.00;0.00;0.62;10.03;7.00;;;23.30;28.90;;;;;;2218384;62;20391;-60
2021/11/15 01:28:26;0.00;0.00;0.62;0.00;0.00;0.62;10.97;7.63;;;23.30;28.90;;;;;;2217810;62;20583;-60
2021/11/15 01:31:11;0.00;0.00;0.62;0.00;0.00;0.62;9.83;7.30;;;23.30;28.90;;;;;;2218409;62;20603;-60
2021/11/15 01:33:55;0.00;0.00;0.62;0.00;0.00;0.62;14.83;8.33;;;23.30;28.90;;;;;;2217805;62;20384;-61
2021/11/15 01:36:40;0.00;0.00;0.62;0.00;0.00;0.62;12.07;7.10;;;23.20;28.80;;;;;;2217906;62;20360;-60
2021/11/15 01:39:26;0.00;0.00;0.62;0.00;0.00;0.62;10.43;7.53;;;23.20;28.80;;;;;;2218471;62;20697;-60
2021/11/15 01:42:11;0.00;0.00;0.62;0.00;0.00;0.62;9.17;7.07;;;23.20;28.80;;;;;;2217681;62;20408;-60
2021/11/15 01:44:55;0.00;0.00;0.62;0.00;0.00;0.62;9.90;7.37;;;23.20;28.80;;;;;;2218021;62;20421;-61
2021/11/15 01:47:40;0.00;0.00;0.62;0.00;0.00;0.62;10.40;7.40;;;23.20;28.80;;;;;;2218315;62;20417;-60
2021/11/15 01:50:26;0.00;0.00;0.62;0.00;0.00;0.62;11.70;7.83;;;23.20;28.80;;;;;;2217800;62;20379;-60
2021/11/15 01:53:11;0.00;0.00;0.62;0.00;0.00;0.62;10.73;7.10;;;23.20;28.90;;;;;;2218055;62;20409;-60
2021/11/15 01:55:58;0.00;0.00;0.62;0.00;0.00;0.62;10.20;8.07;;;23.10;28.80;;;;;;2217985;62;20432;-60
2021/11/15 01:58:43;0.00;0.00;0.62;0.00;0.00;0.62;9.23;6.67;;;23.10;28.80;;;;;;2217947;62;20593;-60
2021/11/15 02:01:29;0.00;0.00;0.62;0.00;0.00;0.62;7.90;6.40;;;23.10;28.80;;;;;;2218196;62;20399;-60
2021/11/15 02:04:14;0.00;0.00;0.62;0.00;0.00;0.62;11.87;8.40;;;23.10;28.80;;;;;;2217608;62;20417;-60
2021/11/15 02:06:59;0.00;0.00;0.62;0.00;0.00;0.62;8.97;7.37;;;23.10;28.80;;;;;;2218048;62;20400;-60
2021/11/15 02:09:43;0.00;0.00;0.62;0.00;0.00;0.62;13.10;8.80;;;23.10;28.80;;;;;;2218289;62;20594;-60
2021/11/15 02:12:29;0.00;0.00;0.62;0.00;0.00;0.62;10.37;7.07;;;23.10;28.80;;;;;;2217724;62;20481;-61
2021/11/15 02:15:15;0.00;0.00;0.62;0.00;0.00;0.62;11.10;6.87;;;23.00;28.70;;;;;;2217888;62;20391;-60
2021/11/15 02:18:00;0.00;0.00;0.62;0.00;0.00;0.62;8.80;6.83;;;23.00;28.70;;;;;;2218183;62;20389;-60
2021/11/15 02:20:48;0.00;0.00;0.62;0.00;0.00;0.62;8.93;6.57;;;23.00;28.70;;;;;;2217446;62;20420;-60
2021/11/15 02:23:36;0.00;0.00;0.62;0.00;0.00;0.62;10.40;7.60;;;23.00;28.70;;;;;;2217892;62;20384;-60
2021/11/15 02:26:23;0.00;0.00;0.62;0.00;0.00;0.62;13.17;8.10;;;23.00;28.70;;;;;;2217735;62;20768;-60
2021/11/15 02:29:08;0.00;0.00;0.62;0.00;0.00;0.62;9.83;7.20;;;23.00;28.70;;;;;;2217956;62;20598;-60
2021/11/15 02:31:52;0.00;0.00;0.62;0.00;0.00;0.62;11.83;7.00;;;23.00;28.70;;;;;;2218979;62;20597;-60
2021/11/15 02:34:37;0.00;0.00;0.62;0.00;0.00;0.62;12.73;7.70;;;23.00;28.70;;;;;;2218238;62;20399;-60
2021/11/15 02:37:24;0.00;0.00;0.62;0.00;0.00;0.62;11.90;8.40;;;23.00;28.70;;;;;;2218370;62;20372;-60
2021/11/15 02:40:12;0.00;0.00;0.62;0.00;0.00;0.62;11.50;8.60;;;22.90;28.60;;;;;;2219003;62;20590;-60
2021/11/15 02:42:57;0.00;0.00;0.62;0.00;0.00;0.62;12.27;8.67;;;22.90;28.60;;;;;;2217854;62;20780;-60
2021/11/15 02:45:43;0.00;0.00;0.62;0.00;0.00;0.62;13.10;7.63;;;22.90;28.60;;;;;;2218663;62;20663;-60
2021/11/15 02:48:28;0.00;0.00;0.62;0.00;0.00;0.62;13.80;10.00;;;22.90;28.60;;;;;;2218491;62;20367;-60
2021/11/15 02:51:14;0.00;0.00;0.62;0.00;0.00;0.62;12.83;8.60;;;22.90;28.60;;;;;;2218459;62;20723;-61
2021/11/15 02:54:00;0.00;0.00;0.62;0.00;0.00;0.62;11.47;8.13;;;22.90;28.60;;;;;;2218350;62;20460;-60
2021/11/15 02:56:45;0.00;0.00;0.62;0.00;0.00;0.62;10.13;8.00;;;22.90;28.60;;;;;;2217889;62;20585;-61
2021/11/15 02:59:29;0.00;0.00;0.62;0.00;0.00;0.62;13.80;9.30;;;22.80;28.50;;;;;;2218345;62;20364;-60
2021/11/15 03:02:14;0.00;0.00;0.62;0.00;0.00;0.62;10.40;8.07;;;22.80;28.50;;;;;;2218801;62;20650;-60
2021/11/15 03:04:59;0.00;0.00;0.62;0.00;0.00;0.62;12.63;9.60;;;22.80;28.50;;;;;;2218196;62;20473;-60
2021/11/15 03:07:45;0.00;0.00;0.62;0.00;0.00;0.62;14.07;10.40;;;22.80;29.10;;;;;;2218672;62;20368;-60
2021/11/15 03:10:32;0.00;0.00;0.62;0.00;0.00;0.62;14.00;9.77;;;22.80;28.50;;;;;;2218706;62;20777;-60
2021/11/15 03:13:20;0.00;0.00;0.62;0.00;0.00;0.62;14.43;10.10;;;22.80;28.60;;;;;;2218105;62;20600;-60
2021/11/15 03:16:05;0.00;0.00;0.62;0.00;0.00;0.62;15.03;9.33;;;22.70;28.50;;;;;;2218859;62;20393;-60
2021/11/15 03:18:50;0.00;0.00;0.62;0.00;0.00;0.62;13.53;10.00;;;22.70;28.50;;;;;;2218184;62;20627;-60
2021/11/15 03:21:35;0.00;0.00;0.62;0.00;0.00;0.62;12.60;9.13;;;22.70;28.50;;;;;;2218329;62;20375;-61
2021/11/15 03:24:20;0.00;0.00;0.62;0.00;0.00;0.62;13.80;9.27;;;22.70;28.50;;;;;;2218342;62;20383;-60
2021/11/15 03:27:06;0.00;0.00;0.62;0.00;0.00;0.62;13.27;9.77;;;22.70;28.50;;;;;;2218108;62;20383;-60
2021/11/15 03:29:50;0.00;0.00;0.62;0.00;0.00;0.62;15.10;10.20;;;22.70;28.50;;;;;;2218742;62;20371;-60
2021/11/15 03:32:35;0.00;0.00;0.62;0.00;0.00;0.62;15.10;10.67;;;22.70;28.50;;;;;;2218454;62;20372;-60
2021/11/15 03:35:20;0.00;0.00;0.62;0.00;0.00;0.62;14.07;10.33;;;22.60;28.40;;;;;;2218127;62;20427;-60
2021/11/15 03:38:07;0.00;0.00;0.62;0.00;0.00;0.62;17.50;12.50;;;22.60;28.40;;;;;;2218804;62;20376;-61
2021/11/15 03:40:52;0.00;0.00;0.62;0.00;0.00;0.62;17.80;11.70;;;22.60;28.40;;;;;;2217831;62;20607;-60
2021/11/15 03:43:38;0.00;0.00;0.62;0.00;0.00;0.62;16.27;11.27;;;22.60;28.40;;;;;;2218297;62;20411;-60
2021/11/15 03:46:24;0.00;0.00;0.62;0.00;0.00;0.62;18.60;12.13;;;22.60;28.40;;;;;;2219001;62;20430;-61
2021/11/15 03:49:14;0.00;0.00;0.62;0.00;0.00;0.62;17.53;11.73;;;22.60;28.40;;;;;;2217820;62;20420;-60
2021/11/15 03:51:59;0.00;0.00;0.62;0.00;0.00;0.62;15.70;11.83;;;22.60;28.40;;;;;;2218693;62;20387;-60
2021/11/15 03:54:43;0.00;0.00;0.62;0.00;0.00;0.62;17.00;11.03;;;22.50;28.30;;;;;;2218290;62;20437;-60
2021/11/15 03:57:28;0.00;0.00;0.62;0.00;0.00;0.62;17.30;11.67;;;22.50;28.30;;;;;;2218167;62;20368;-60
2021/11/15 04:00:18;0.00;0.00;0.62;0.00;0.00;0.62;15.70;10.73;;;22.50;28.30;;;;;;2218732;62;20391;-60
2021/11/15 04:03:08;0.00;0.00;0.62;0.00;0.00;0.62;15.70;11.73;;;22.50;28.30;;;;;;2217403;62;20372;-60
2021/11/15 04:06:00;0.00;0.00;0.62;0.00;0.00;0.62;16.53;11.70;;;22.50;28.30;;;;;;2218248;62;20403;-60
2021/11/15 04:08:45;0.00;0.00;0.62;0.00;0.00;0.62;17.40;12.10;;;22.50;28.30;;;;;;2218256;62;20364;-60
2021/11/15 04:11:31;0.00;0.00;0.62;0.00;0.00;0.62;17.07;11.90;;;22.50;28.30;;;;;;2218044;62;20457;-60
2021/11/15 04:14:16;0.00;0.00;0.62;0.00;0.00;0.62;15.10;11.83;;;22.50;28.30;;;;;;2218227;62;20387;-60
2021/11/15 04:17:02;0.00;0.00;0.62;0.00;0.00;0.62;16.93;12.07;;;22.50;28.30;;;;;;2218342;62;20617;-60
2021/11/15 04:19:48;0.00;0.00;0.62;0.00;0.00;0.62;20.73;13.33;;;22.40;28.30;;;;;;2218185;62;20388;-61
2021/11/15 04:22:32;0.00;0.00;0.62;0.00;0.00;0.62;16.40;12.47;;;22.50;28.30;;;;;;2218662;62;20375;-60
2021/11/15 04:25:17;0.00;0.00;0.62;0.00;0.00;0.62;16.50;11.40;;;22.40;28.30;;;;;;2217880;62;20423;-60
2021/11/15 04:28:02;0.00;0.00;0.62;0.00;0.00;0.62;15.80;10.77;;;22.40;28.30;;;;;;2218234;62;20367;-60
2021/11/15 04:30:46;0.00;0.00;0.62;0.00;0.00;0.62;18.03;12.07;;;22.40;28.30;;;;;;2218680;62;20369;-60
2021/11/15 04:33:33;0.00;0.00;0.62;0.00;0.00;0.62;15.37;12.30;;;22.40;28.30;;;;;;2217634;62;20391;-60
2021/11/15 04:36:18;0.00;0.00;0.62;0.00;0.00;0.62;18.53;11.67;;;22.40;28.30;;;;;;2218339;62;20836;-60
2021/11/15 04:39:03;0.00;0.00;0.62;0.00;0.00;0.62;17.43;12.13;;;22.40;28.30;;;;;;2218373;62;20430;-60
2021/11/15 04:41:48;0.00;0.00;0.62;0.00;0.00;0.62;17.00;13.00;;;22.40;28.30;;;;;;2218013;62;20405;-61
2021/11/15 04:44:32;0.00;0.00;0.62;0.00;0.00;0.62;17.83;13.30;;;22.30;28.20;;;;;;2218471;62;20613;-60
2021/11/15 04:47:17;0.00;0.00;0.62;0.00;0.00;0.62;17.33;12.27;;;22.40;28.30;;;;;;2218035;62;20392;-60
2021/11/15 04:50:05;0.00;0.00;0.62;0.00;0.00;0.62;17.80;12.30;;;22.30;28.80;;;;;;2218058;62;20391;-60
2021/11/15 04:52:51;0.00;0.00;0.62;0.00;0.00;0.62;15.97;11.60;;;22.30;28.20;;;;;;2218469;62;20371;-60
2021/11/15 04:55:38;0.00;0.00;0.62;0.00;0.00;0.62;17.33;11.83;;;22.30;28.20;;;;;;2217946;62;20594;-60
2021/11/15 04:58:23;0.00;0.00;0.62;0.00;0.00;0.62;16.43;12.20;;;22.30;28.20;;;;;;2218331;62;20519;-60
2021/11/15 05:01:07;0.00;0.00;0.62;0.00;0.00;0.62;15.50;11.93;;;22.30;28.20;;;;;;2218219;62;20417;-60
2021/11/15 05:03:52;0.00;0.00;0.62;0.00;0.00;0.62;16.87;11.67;;;22.30;28.20;;;;;;2217935;62;20646;-60
2021/11/15 05:06:38;0.00;0.00;0.62;0.00;0.00;0.62;17.20;12.37;;;22.30;28.20;;;;;;2218477;62;20401;-60
2021/11/15 05:09:23;0.00;0.00;0.62;0.00;0.00;0.62;16.43;10.60;;;22.30;28.20;;;;;;2217944;62;20396;-60
2021/11/15 05:12:08;0.00;0.00;0.62;0.00;0.00;0.62;16.10;11.17;;;22.30;28.20;;;;;;2218083;62;20412;-61
2021/11/15 05:14:53;0.00;0.00;0.62;0.00;0.00;0.62;17.17;12.17;;;22.20;28.10;;;;;;2218332;62;20396;-60
2021/11/15 05:17:39;0.00;0.00;0.62;0.00;0.00;0.62;15.87;12.10;;;22.20;28.10;;;;;;2217893;62;20371;-60
2021/11/15 05:20:24;0.00;0.00;0.62;0.00;0.00;0.62;14.60;11.60;;;22.20;28.10;;;;;;2218184;62;20428;-60
2021/11/15 05:23:11;0.00;0.00;0.62;0.00;0.00;0.62;17.07;12.60;;;22.20;28.10;;;;;;2218048;62;20509;-60
2021/11/15 05:25:56;0.00;0.00;0.62;0.00;0.00;0.62;15.20;11.23;;;22.20;28.10;;;;;;2217849;62;20480;-61
2021/11/15 05:28:40;0.00;0.00;0.62;0.00;0.00;0.62;15.47;11.30;;;22.20;28.10;;;;;;2218472;62;20598;-60
2021/11/15 05:31:26;0.00;0.00;0.62;0.00;0.00;0.62;13.90;10.80;;;22.20;28.10;;;;;;2217900;62;20402;-61
2021/11/15 05:34:10;0.00;0.00;0.62;0.00;0.00;0.62;14.60;10.50;;;22.20;28.10;;;;;;2217805;62;20444;-60
2021/11/15 05:36:55;0.00;0.00;0.62;0.00;0.00;0.62;16.67;12.30;;;22.20;28.00;;;;;;2218400;62;20683;-60
2021/11/15 05:39:41;0.00;0.00;0.62;0.00;0.00;0.62;12.93;10.40;;;22.20;28.00;;;;;;2217747;62;20512;-60
2021/11/15 05:42:26;0.00;0.00;0.62;0.00;0.00;0.62;13.37;10.47;;;22.20;28.10;;;;;;2218049;62;20368;-60
2021/11/15 05:45:12;0.00;0.00;0.62;0.00;0.00;0.62;16.50;11.60;;;22.10;28.00;;;;;;2218425;62;20396;-60
2021/11/15 05:47:57;0.00;0.00;0.62;0.00;0.00;0.62;14.57;10.57;;;22.10;27.90;;;;;;2217361;62;20409;-60
2021/11/15 05:50:41;0.00;0.00;0.62;0.00;0.00;0.62;15.13;11.33;;;22.10;27.90;;;;;;2218198;62;20440;-60
2021/11/15 05:53:26;0.00;0.00;0.62;0.00;0.00;0.62;14.57;10.83;;;22.10;27.90;;;;;;2217764;62;20386;-60
2021/11/15 05:56:12;0.00;0.00;0.62;0.00;0.00;0.62;14.83;11.33;;;22.10;28.00;;;;;;2217441;62;20371;-60
2021/11/15 05:58:57;0.00;0.00;0.62;0.00;0.00;0.62;15.00;10.53;;;22.10;27.90;;;;;;2218406;62;20529;-60
2021/11/15 06:01:43;0.00;0.00;0.62;0.00;0.00;0.62;13.30;10.47;;;22.10;27.90;;;;;;2217681;62;20502;-60
2021/11/15 06:04:28;0.00;0.00;0.62;0.00;0.00;0.62;12.90;9.93;;;22.10;27.90;;;;;;2218014;62;20388;-60
2021/11/15 06:07:13;0.00;0.00;0.62;0.00;0.00;0.62;13.30;11.10;;;22.10;27.90;;;;;;2219097;62;20429;-60
2021/11/15 06:09:57;0.00;0.00;0.62;0.00;0.00;0.62;13.63;10.27;;;22.10;27.90;;;;;;2218469;62;20392;-60
2021/11/15 06:12:44;0.00;0.00;0.62;0.00;0.00;0.62;13.67;10.60;;;22.10;27.90;;;;;;2218813;62;20388;-60
2021/11/15 06:15:28;0.00;0.00;0.62;0.00;0.00;0.62;12.17;9.57;;;22.00;27.90;;;;;;2218716;62;20368;-60
2021/11/15 06:18:14;0.00;0.00;0.62;0.00;0.00;0.62;12.30;10.53;;;22.10;27.90;;;;;;2218562;62;20403;-60
2021/11/15 06:20:59;0.00;0.00;0.62;0.00;0.00;0.62;12.60;10.13;;;22.10;27.90;;;;;;2218555;62;20401;-60
2021/11/15 06:23:43;0.00;0.00;0.62;0.00;0.00;0.62;14.37;10.57;;;22.10;27.90;;;;;;2218347;62;20416;-60
2021/11/15 06:26:28;0.00;0.00;0.62;0.00;0.00;0.62;13.37;9.30;;;22.00;27.80;;;;;;2218534;62;20395;-60
2021/11/15 06:29:15;0.00;0.00;0.62;0.00;0.00;0.62;14.53;10.60;;;22.00;28.30;;;;;;2219012;62;20398;-60
2021/11/15 06:31:59;0.00;0.00;0.62;0.00;0.00;0.62;12.17;9.67;;;22.00;27.80;;;;;;2218144;62;20514;-60
2021/11/15 06:34:44;0.00;0.00;0.62;0.00;0.00;0.62;13.50;10.37;;;22.00;27.80;;;;;;2218649;62;20438;-60
2021/11/15 06:37:29;0.00;0.00;0.62;0.00;0.00;0.62;14.60;10.73;;;22.00;27.80;;;;;;2218667;62;20364;-60
2021/11/15 06:40:17;0.00;0.00;0.62;0.00;0.00;0.62;15.20;10.53;;;22.00;27.80;;;;;;2218204;62;20395;-60
2021/11/15 06:43:01;0.00;0.00;0.62;0.00;0.00;0.62;12.20;9.90;;;22.00;27.80;;;;;;2218762;62;20364;-60
2021/11/15 06:45:47;0.00;0.00;0.62;0.00;0.00;0.62;10.83;8.87;;;22.00;27.80;;;;;;2218295;62;20387;-61
2021/11/15 06:48:37;0.00;0.00;0.62;0.00;0.00;0.62;13.23;9.90;;;22.00;27.80;;;;;;2218430;62;20368;-60
2021/11/15 06:51:22;0.00;0.00;0.62;0.00;0.00;0.62;11.53;9.10;;;21.90;27.70;;;;;;2218970;62;20450;-60
2021/11/15 06:54:06;0.00;0.00;0.62;0.00;0.00;0.62;13.83;9.90;;;22.00;27.80;;;;;;2217920;62;20429;-60
2021/11/15 06:56:51;0.00;0.00;0.62;0.00;0.00;0.62;15.53;10.33;;;21.90;27.70;;;;;;2218566;62;20367;-61
2021/11/15 06:59:35;0.00;0.00;0.62;0.00;0.00;0.62;15.43;11.00;;;21.90;27.70;;;;;;2218574;62;20368;-60
2021/11/15 07:02:22;0.00;0.00;0.62;0.00;0.00;0.62;12.33;10.60;;;21.90;27.70;;;;;;2217937;62;20447;-59
2021/11/15 07:05:11;0.00;0.00;0.62;0.00;0.00;0.62;12.93;10.43;;;21.90;27.70;;;;;;2218778;62;20509;-60
2021/11/15 07:07:55;0.00;0.00;0.62;0.00;0.00;0.62;12.27;9.70;;;21.90;27.70;;;;;;2218241;62;20394;-60
2021/11/15 07:10:40;0.00;0.00;0.62;0.00;0.00;0.62;12.63;9.70;;;21.90;27.70;;;;;;2218337;62;20658;-60
2021/11/15 07:13:24;0.00;0.00;0.62;0.00;0.00;0.62;14.47;10.77;;;21.90;27.60;;;;;;2218667;62;20691;-60
2021/11/15 07:16:09;0.00;0.00;0.62;0.00;0.00;0.62;13.50;10.87;;;21.90;27.70;;;;;;2217802;62;20363;-58
2021/11/15 07:18:55;0.00;0.00;0.62;0.00;0.00;0.62;10.13;8.80;;;21.80;27.50;;;;;;2218658;62;20823;-60
2021/11/15 07:21:40;0.00;0.00;0.62;0.00;0.00;0.62;12.33;10.10;;;21.80;27.60;;;;;;2218437;62;20371;-60
2021/11/15 07:24:24;0.00;0.00;0.62;0.00;0.00;0.62;13.10;10.20;;;21.80;27.60;;;;;;2217993;62;20387;-60
2021/11/15 07:27:09;0.00;0.00;0.62;0.00;0.00;0.62;13.23;9.43;;;21.80;27.60;;;;;;2218858;62;20391;-60
2021/11/15 07:29:54;0.00;0.00;0.62;0.00;0.00;0.62;10.27;8.40;;;21.80;27.60;;;;;;2218061;62;20411;-60
2021/11/15 07:32:39;0.00;0.00;0.62;0.00;0.00;0.62;11.07;9.47;;;21.80;27.60;;;;;;2218262;62;20363;-60
2021/11/15 07:35:25;0.00;0.00;0.62;0.00;0.00;0.62;12.20;9.90;;;21.80;27.60;;;;;;2218691;62;20383;-60
2021/11/15 07:38:10;0.00;0.00;0.62;0.00;0.00;0.62;11.87;9.60;;;21.80;27.60;;;;;;2218004;62;20372;-60
2021/11/15 07:40:54;0.00;0.00;0.62;0.00;0.00;0.62;11.43;8.90;;;21.80;27.60;;;;;;2218495;62;20764;-60
2021/11/15 07:43:39;0.00;0.00;0.62;0.00;0.00;0.62;13.80;9.43;;;21.80;27.60;;;;;;2218389;62;20444;-60
2021/11/15 07:46:23;0.00;0.00;0.62;0.00;0.00;0.62;10.53;8.67;;;21.80;27.60;;;;;;2218202;62;20391;-60
2021/11/15 07:49:08;0.00;0.00;0.62;0.00;0.00;0.62;12.83;9.40;;;21.80;27.60;;;;;;2218612;62;20383;-60
2021/11/15 07:51:53;0.00;0.00;0.62;0.00;0.00;0.62;12.50;9.43;;;21.80;27.60;;;;;;2218142;62;20383;-60
2021/11/15 07:54:38;0.00;0.00;0.62;0.00;0.00;0.62;11.93;9.17;;;21.80;27.60;;;;;;2218209;62;20388;-60
2021/11/15 07:57:23;0.00;0.00;0.62;0.00;0.00;0.62;11.70;9.57;;;21.80;27.60;;;;;;2218549;62;20372;-59
2021/11/15 08:00:11;0.00;0.00;0.62;0.00;0.00;0.62;16.13;9.83;;;21.80;27.60;;;;;;2218002;62;20768;-60
2021/11/15 08:02:59;0.00;0.00;0.62;0.00;0.00;0.62;12.90;9.80;;;21.70;27.50;;;;;;2218119;62;20444;-62
2021/11/15 08:05:44;0.00;0.00;0.62;0.00;0.00;0.62;10.30;8.40;;;21.80;27.70;;;;;;2218670;62;20395;-60
2021/11/15 08:08:30;0.00;0.00;0.62;0.00;0.00;0.62;14.90;11.17;;;21.70;27.60;;;;;;2218181;62;20376;-59
2021/11/15 08:11:15;0.00;0.00;0.62;0.00;0.00;0.62;12.30;9.00;;;21.70;27.40;;;;;;2218517;62;20690;-60
2021/11/15 08:14:00;0.00;0.00;0.62;0.00;0.00;0.62;13.47;10.70;;;21.70;27.40;;;;;;2217888;62;20423;-61
2021/11/15 08:16:47;0.00;0.00;0.62;0.00;0.00;0.62;12.47;9.10;;;21.70;27.40;;;;;;2217663;62;20380;-62
2021/11/15 08:19:32;0.00;0.00;0.62;0.00;0.00;0.62;11.83;9.43;;;21.70;27.40;;;;;;2218462;62;20372;-61
2021/11/15 08:22:16;0.00;0.00;0.62;0.00;0.00;0.62;11.67;9.50;;;21.70;27.40;;;;;;2217960;62;20363;-61
2021/11/15 08:25:43;0.00;0.00;0.62;0.00;0.00;0.62;12.37;9.13;;;21.70;27.40;;;;;;2218152;62;20585;-61
2021/11/15 08:28:10;0.00;0.00;0.62;0.00;0.00;0.62;12.23;8.67;;;21.70;27.40;;;;;;2215080;62;20372;-61
2021/11/15 08:30:38;0.00;0.00;0.62;0.00;0.00;0.62;12.13;9.27;;;21.70;27.40;;;;;;2218033;62;20475;-61
2021/11/15 08:33:05;0.00;0.00;0.62;0.00;0.00;0.62;10.90;8.97;;;21.70;27.50;;;;;;2218285;62;20460;-59
2021/11/15 08:35:31;0.00;0.00;0.62;0.00;0.00;0.62;11.60;9.57;;;21.70;27.50;;;;;;2218146;62;20373;-61
2021/11/15 08:38:39;0.00;0.00;0.62;0.00;0.00;0.62;11.50;8.97;;;21.70;27.50;;;;;;2218065;62;20349;-62
2021/11/15 08:41:06;0.00;0.00;0.62;0.00;0.00;0.62;13.63;8.60;;;21.70;27.50;;;;;;2218222;62;20382;-60
2021/11/15 08:43:35;0.00;0.00;0.62;0.00;0.00;0.62;13.87;10.83;;;21.70;27.50;;;;;;2217888;62;20396;-61
2021/11/15 08:46:01;0.00;0.00;0.62;0.00;0.00;0.62;10.73;8.87;;;21.70;27.50;;;;;;2217914;62;20736;-62
2021/11/15 08:48:27;0.00;0.00;0.62;0.00;0.00;0.62;13.70;10.00;;;21.70;27.50;;;;;;2218015;62;20625;-60
2021/11/15 08:50:53;0.00;0.00;0.62;0.00;0.00;0.62;10.30;8.87;;;21.70;27.60;;;;;;2218300;62;20440;-61
2021/11/15 08:53:19;0.00;0.00;0.62;0.00;0.00;0.62;12.90;10.03;;;21.70;27.50;;;;;;2217862;62;20433;-61
2021/11/15 08:55:45;0.00;0.00;0.62;0.00;0.00;0.62;15.43;10.17;;;21.70;27.50;;;;;;2218218;62;20697;-60
2021/11/15 08:58:12;0.00;0.00;0.62;0.00;0.00;0.62;13.40;9.00;;;21.70;27.60;;;;;;2218336;62;20361;-61
2021/11/15 09:00:42;0.00;0.00;0.62;0.00;0.00;0.62;13.93;10.37;;;21.80;27.60;;;;;;2217944;62;20417;-59
2021/11/15 09:03:09;0.00;0.00;0.62;0.00;0.00;0.62;13.27;9.50;;;21.70;27.50;;;;;;2217999;62;20633;-61
2021/11/15 09:05:35;0.00;0.00;0.62;0.00;0.00;0.62;10.90;9.00;;;21.70;27.50;;;;;;2218297;62;20397;-60
2021/11/15 09:08:01;0.00;0.00;0.62;0.00;0.00;0.62;11.17;9.10;;;21.70;27.50;;;;;;2217870;62;20361;-60
2021/11/15 09:10:28;0.00;0.00;0.62;0.00;0.00;0.62;11.80;9.60;;;21.70;27.50;;;;;;2218239;62;20486;-61
2021/11/15 09:12:54;0.00;0.00;0.62;0.00;0.00;0.62;11.20;9.23;;;21.80;27.50;;;;;;2218126;62;20361;-60
2021/11/15 09:15:22;0.00;0.00;0.62;0.00;0.00;0.62;11.90;10.00;;;21.80;27.50;;;;;;2217720;62;20384;-60
2021/11/15 09:18:07;0.00;0.00;0.62;0.00;0.00;0.62;13.30;9.60;;;21.80;27.50;;;;;;2218391;62;20375;-60
2021/11/15 09:20:52;0.00;0.00;0.62;0.00;0.00;0.62;11.73;9.30;;;21.70;27.50;;;;;;2217661;62;20405;-60
2021/11/15 09:23:39;0.00;0.00;0.62;0.00;0.00;0.62;15.10;10.43;;;21.80;27.50;;;;;;2217520;62;20836;-60
2021/11/15 09:26:27;0.00;0.00;0.62;0.00;0.00;0.62;11.93;9.40;;;21.80;27.50;;;;;;2218236;62;20396;-60
2021/11/15 09:29:12;0.00;0.00;0.62;0.00;0.00;0.62;12.43;9.63;;;21.80;27.50;;;;;;2217868;62;20367;-60
2021/11/15 09:31:58;0.00;0.00;0.62;0.00;0.00;0.62;10.07;8.60;;;21.80;27.50;;;;;;2218268;62;20478;-61
2021/11/15 09:34:43;0.00;0.00;0.62;0.00;0.00;0.62;10.77;8.53;;;21.80;27.50;;;;;;2217937;62;20522;-61
2021/11/15 09:37:28;0.00;0.00;0.62;0.00;0.00;0.62;12.13;9.17;;;21.80;27.50;;;;;;2217285;62;20348;-61
2021/11/15 09:40:13;0.00;0.00;0.62;0.00;0.00;0.62;11.63;9.30;;;21.80;27.40;;;;;;2218156;62;20763;-61
2021/11/15 09:42:58;0.00;0.00;0.62;0.00;0.00;0.62;13.13;10.27;;;21.80;27.40;;;;;;2217522;62;20468;-60
2021/11/15 09:45:43;0.00;0.00;0.62;0.00;0.00;0.62;9.83;8.83;;;21.80;27.40;;;;;;2217825;62;20400;-60
2021/11/15 09:48:33;0.00;0.00;0.62;0.00;0.00;0.62;15.80;10.73;;;21.80;27.40;;;;;;2218425;62;20372;-60
2021/11/15 09:51:18;0.00;0.00;0.62;0.00;0.00;0.62;10.87;9.20;;;21.70;27.20;;;;;;2217678;62;20375;-60
2021/11/15 09:54:04;0.00;0.00;0.62;0.00;0.00;0.62;13.67;10.00;;;21.80;27.80;;;;;;2217858;62;20388;-59
2021/11/15 09:56:51;0.00;0.00;0.62;0.00;0.00;0.62;12.23;10.13;;;21.80;27.30;;;;;;2218314;62;20653;-60
2021/11/15 09:59:37;0.00;0.00;0.62;0.00;0.00;0.62;14.40;10.37;;;21.70;27.20;;;;;;2217756;62;20728;-60
2021/11/15 10:02:22;0.00;0.00;0.62;0.00;0.00;0.62;12.80;9.53;;;21.80;27.30;;;;;;2217790;62;20728;-60
2021/11/15 10:05:10;0.00;0.00;0.62;0.00;0.00;0.62;11.10;8.73;;;21.70;27.30;;;;;;2217676;62;20395;-61
2021/11/15 10:07:56;0.00;0.00;0.62;0.00;0.00;0.62;15.90;9.40;;;21.70;27.30;;;;;;2217960;62;20393;-60
2021/11/15 10:10:46;0.00;0.00;0.62;0.00;0.00;0.62;12.27;9.00;;;21.80;27.30;;;;;;2218422;62;20391;-60
2021/11/15 10:13:34;0.00;0.00;0.62;0.00;0.00;0.62;13.40;9.70;;;21.70;27.20;;;;;;2217549;62;20425;-60
2021/11/15 10:16:21;0.00;0.00;0.62;0.00;0.00;0.62;12.63;10.27;;;21.70;27.20;;;;;;2218027;62;20402;-60
2021/11/15 10:19:08;0.00;0.00;0.62;0.00;0.00;0.62;12.50;9.63;;;21.70;27.20;;;;;;2218040;62;20376;-60
2021/11/15 10:21:58;0.00;0.00;0.62;0.00;0.00;0.62;10.27;8.20;;;21.70;27.20;;;;;;2217820;62;20494;-60
2021/11/15 10:24:45;0.00;0.00;0.62;0.00;0.00;0.62;12.03;9.27;;;21.70;27.20;;;;;;2218403;62;20396;-62
2021/11/15 10:27:30;0.00;0.00;0.62;0.00;0.00;0.62;10.17;8.10;;;21.70;27.20;;;;;;2217592;62;20464;-61
2021/11/15 10:30:15;0.00;0.00;0.62;0.00;0.00;0.62;8.93;7.50;;;21.70;27.20;;;;;;2217893;62;20373;-60
2021/11/15 10:33:05;0.00;0.00;0.62;0.00;0.00;0.62;10.43;6.93;;;21.70;27.20;;;;;;2717122;46;20692;-58
2021/11/15 10:35:52;0.00;0.00;0.62;0.00;0.00;0.62;10.07;8.10;;;21.70;27.20;;;;;;2217545;62;20372;-61
2021/11/15 10:38:44;0.00;0.00;0.62;0.00;0.00;0.62;9.70;8.17;;;21.80;27.30;;;;;;2218033;62;20375;-62